< < Back
Terminal Aerodrome Forecast


Current Version              Previous Versions:   1  2  3  4  5  6  7  8  9  

Terminal Aerodrome Forecast

819
FTUS42 KGSP 241400 AAA
TAFCLT
TAF AMD
KCLT 241457Z 2415/2512 06006KT P6SM FEW250
     FM241700 15006KT P6SM FEW250
     FM250600 15006KT P6SM BKN050
     FM250800 15005KT P6SM BKN015=

Latest METAR

623
SAUS70 KWBC 250100
MTRCLT
METAR KCLT 250052Z 14006KT 10SM FEW250 18/06 A2998 RMK AO2 SLP147
T01780061


USA.gov is the U.S. government's official web portal to all federal, state and local government web resources and services.